Time,TemperatureF,DewpointF,PressureIn,WindDirection,WindDirectionDegrees,WindSpeedMPH,WindSpeedGustMPH,Humidity,HourlyPrecipIn,Conditions,Clouds,dailyrainin,SoftwareType,DateUTC
2013-07-06 00:02:00,65.7,46.6,17.73,West,270,0.0,0.0,50,0.00,,,0.00,meteohub,2013-07-06 07:02:00,
2013-07-06 00:22:00,65.8,46.8,17.73,West,269,0.0,0.0,50,0.00,,,0.00,meteohub,2013-07-06 07:22:00,
2013-07-06 00:42:00,65.8,46.8,17.73,WNW,289,0.0,0.0,50,0.00,,,0.00,meteohub,2013-07-06 07:42:00,
2013-07-06 01:02:00,65.8,46.8,17.73,West,266,0.0,0.0,50,0.00,,,0.00,meteohub,2013-07-06 08:02:00,
2013-07-06 01:22:00,66.0,46.8,17.73,West,266,0.0,0.0,50,0.00,,,0.00,meteohub,2013-07-06 08:22:00,
2013-07-06 01:42:00,66.2,46.9,17.73,SSW,207,0.0,0.0,50,0.00,,,0.00,meteohub,2013-07-06 08:42:00,
2013-07-06 02:02:00,66.2,46.9,17.73,SSE,167,0.0,0.0,50,0.00,,,0.00,meteohub,2013-07-06 09:02:00,
2013-07-06 02:22:00,66.4,47.1,17.73,SSW,206,0.0,0.0,50,0.00,,,0.00,meteohub,2013-07-06 09:22:00,
2013-07-06 02:42:00,66.2,46.4,17.73,SE,144,0.0,0.0,49,0.00,,,0.00,meteohub,2013-07-06 09:42:00,
2013-07-06 03:02:00,66.2,46.4,17.73,SE,137,0.0,0.0,49,0.00,,,0.00,meteohub,2013-07-06 10:02:00,
2013-07-06 03:22:00,66.0,46.4,17.73,NW,319,0.0,0.0,49,0.00,,,0.00,meteohub,2013-07-06 10:22:00,
2013-07-06 03:42:00,66.0,45.7,17.73,South,183,0.0,0.0,48,0.00,,,0.00,meteohub,2013-07-06 10:42:00,
2013-07-06 04:02:00,66.0,45.7,17.73,SW,215,0.0,0.0,48,0.00,,,0.00,meteohub,2013-07-06 11:02:00,
2013-07-06 04:22:00,66.2,45.3,17.73,ESE,122,0.0,0.0,47,0.00,,,0.00,meteohub,2013-07-06 11:22:00,
2013-07-06 04:42:00,66.2,45.3,17.73,South,173,0.0,0.0,47,0.00,,,0.00,meteohub,2013-07-06 11:42:00,
2013-07-06 05:02:00,66.2,44.8,17.73,WSW,252,0.0,0.0,46,0.00,,,0.00,meteohub,2013-07-06 12:02:00,
2013-07-06 05:22:00,66.0,44.6,17.73,SSW,211,0.0,0.0,46,0.00,,,0.00,meteohub,2013-07-06 12:22:00,
2013-07-06 05:42:00,66.0,45.1,17.73,South,190,0.0,0.0,47,0.00,,,0.00,meteohub,2013-07-06 12:42:00,
2013-07-06 06:02:00,65.8,45.0,17.73,SSW,195,0.0,0.0,47,0.00,,,0.00,meteohub,2013-07-06 13:02:00,
2013-07-06 06:22:00,66.0,45.1,17.73,South,180,0.0,0.0,47,0.00,,,0.00,meteohub,2013-07-06 13:22:00,
2013-07-06 06:42:00,66.0,45.1,17.73,SW,227,0.0,0.0,47,0.00,,,0.00,meteohub,2013-07-06 13:42:00,
2013-07-06 07:02:00,66.2,45.3,17.73,WSW,246,0.0,0.0,47,0.00,,,0.00,meteohub,2013-07-06 14:02:00,
2013-07-06 07:22:00,66.2,45.3,17.73,West,263,0.0,0.0,47,0.00,,,0.00,meteohub,2013-07-06 14:22:00,
2013-07-06 07:42:00,66.7,46.4,17.73,South,181,0.0,0.0,48,0.00,,,0.00,meteohub,2013-07-06 14:42:00,
2013-07-06 08:02:00,66.4,45.5,17.73,WSW,241,0.0,0.0,47,0.00,,,0.00,meteohub,2013-07-06 15:02:00,
2013-07-06 08:22:00,66.9,46.6,17.73,West,274,5.0,0.0,48,0.00,,,0.00,meteohub,2013-07-06 15:22:00,
2013-07-06 08:42:00,67.1,45.7,17.73,WSW,250,4.0,6.0,46,0.00,,,0.00,meteohub,2013-07-06 15:42:00,
2013-07-06 09:02:00,67.3,45.1,17.73,SW,224,5.0,6.0,45,0.00,,,0.00,meteohub,2013-07-06 16:02:00,
2013-07-06 09:22:00,67.6,46.0,17.73,WSW,254,3.0,6.0,46,0.00,,,0.00,meteohub,2013-07-06 16:22:00,
2013-07-06 09:42:00,68.4,45.0,17.73,South,186,4.0,5.0,43,0.00,,,0.00,meteohub,2013-07-06 16:42:00,
2013-07-06 10:02:00,68.0,44.6,17.73,WSW,240,5.0,6.0,43,0.00,,,0.00,meteohub,2013-07-06 17:02:00,
2013-07-06 10:22:00,68.2,44.8,17.73,West,263,4.0,6.0,43,0.00,,,0.00,meteohub,2013-07-06 17:22:00,
2013-07-06 10:42:00,69.1,45.7,17.73,WNW,291,3.0,8.0,43,0.00,,,0.00,meteohub,2013-07-06 17:42:00,
2013-07-06 11:02:00,69.6,44.2,17.73,SSW,209,6.0,8.0,40,0.00,,,0.00,meteohub,2013-07-06 18:02:00,
2013-07-06 11:22:00,70.2,44.8,17.73,West,281,3.0,8.0,40,0.00,,,0.00,meteohub,2013-07-06 18:22:00,
2013-07-06 11:42:00,70.9,43.3,17.73,WSW,244,7.0,10.0,37,0.00,,,0.00,meteohub,2013-07-06 18:42:00,
2013-07-06 12:02:00,72.0,42.8,17.73,SW,233,6.0,11.0,35,0.00,,,0.00,meteohub,2013-07-06 19:02:00,
2013-07-06 12:22:00,73.0,43.0,17.73,West,267,5.0,11.0,34,0.00,,,0.00,meteohub,2013-07-06 19:22:00,
2013-07-06 12:42:00,72.1,42.3,17.73,SW,217,6.0,11.0,34,0.00,,,0.00,meteohub,2013-07-06 19:42:00,
2013-07-06 13:02:00,72.5,42.6,17.73,South,189,8.0,11.0,34,0.00,,,0.00,meteohub,2013-07-06 20:02:00,
2013-07-06 13:22:00,72.3,42.4,17.73,WSW,243,9.0,11.0,34,0.00,,,0.00,meteohub,2013-07-06 20:22:00,
2013-07-06 13:42:00,72.3,42.4,17.73,WSW,244,8.0,12.0,34,0.00,,,0.00,meteohub,2013-07-06 20:42:00,
2013-07-06 14:03:00,71.8,42.6,17.73,SSW,197,5.0,14.0,35,0.00,,,0.00,meteohub,2013-07-06 21:03:00,
2013-07-06 14:22:00,72.0,42.1,17.73,SW,226,6.0,11.0,34,0.00,,,0.00,meteohub,2013-07-06 21:22:00,
2013-07-06 14:42:00,72.3,42.4,17.73,SW,216,8.0,13.0,34,0.00,,,0.00,meteohub,2013-07-06 21:42:00,
2013-07-06 15:02:00,73.4,42.6,17.73,SSE,165,6.0,10.0,33,0.00,,,0.00,meteohub,2013-07-06 22:02:00,
2013-07-06 15:22:00,73.4,42.6,17.73,South,186,6.0,10.0,33,0.00,,,0.00,meteohub,2013-07-06 22:22:00,
2013-07-06 15:42:00,73.4,43.3,17.73,South,185,6.0,13.0,34,0.00,,,0.00,meteohub,2013-07-06 22:42:00,
2013-07-06 16:02:00,73.4,43.3,17.73,WSW,241,8.0,13.0,34,0.00,,,0.00,meteohub,2013-07-06 23:02:00,
2013-07-06 16:22:00,72.3,43.2,17.73,WSW,253,8.0,13.0,35,0.00,,,0.00,meteohub,2013-07-06 23:22:00,
2013-07-06 16:43:00,72.0,42.1,17.73,SW,221,10.0,12.0,34,0.00,,,0.00,meteohub,2013-07-06 23:43:00,
2013-07-06 17:02:00,71.8,42.6,17.73,WSW,251,6.0,13.0,35,0.00,,,0.00,meteohub,2013-07-07 00:02:00,
2013-07-06 17:22:00,72.3,42.4,17.73,WNW,283,9.0,13.0,34,0.00,,,0.00,meteohub,2013-07-07 00:22:00,
2013-07-06 17:42:00,71.6,43.2,17.73,WSW,249,8.0,13.0,36,0.00,,,0.00,meteohub,2013-07-07 00:42:00,
2013-07-06 18:02:00,70.9,42.6,17.73,SW,220,5.0,12.0,36,0.00,,,0.00,meteohub,2013-07-07 01:02:00,
2013-07-06 18:23:00,69.4,44.1,17.73,WSW,254,6.0,12.0,40,0.00,,,0.00,meteohub,2013-07-07 01:23:00,
2013-07-06 18:42:00,70.0,43.9,17.73,WSW,237,4.0,10.0,39,0.00,,,0.00,meteohub,2013-07-07 01:42:00,
2013-07-06 19:03:00,69.6,44.2,17.73,WSW,247,5.0,11.0,40,0.00,,,0.00,meteohub,2013-07-07 02:03:00,
2013-07-06 19:22:00,68.5,45.1,17.73,WSW,257,3.0,11.0,43,0.00,,,0.00,meteohub,2013-07-07 02:22:00,
2013-07-06 19:42:00,68.0,45.3,17.73,SW,222,6.0,10.0,44,0.00,,,0.00,meteohub,2013-07-07 02:42:00,
2013-07-06 20:02:00,66.9,46.0,17.73,WSW,240,8.0,9.0,47,0.00,,,0.00,meteohub,2013-07-07 03:02:00,
2013-07-06 20:22:00,66.6,46.8,17.73,SW,227,6.0,9.0,49,0.00,,,0.00,meteohub,2013-07-07 03:22:00,
2013-07-06 20:42:00,66.2,46.9,17.73,SSW,205,4.0,8.0,50,0.00,,,0.00,meteohub,2013-07-07 03:42:00,
2013-07-06 21:02:00,66.0,47.3,17.73,SW,214,6.0,8.0,51,0.00,,,0.00,meteohub,2013-07-07 04:02:00,
2013-07-06 21:22:00,65.8,47.1,17.73,SSW,204,5.0,8.0,51,0.00,,,0.00,meteohub,2013-07-07 04:22:00,
2013-07-06 21:42:00,65.8,47.7,17.73,SSW,202,6.0,6.0,52,0.00,,,0.00,meteohub,2013-07-07 04:42:00,
2013-07-06 22:02:00,65.8,46.8,17.73,SSW,194,5.0,6.0,50,0.00,,,0.00,meteohub,2013-07-07 05:02:00,
2013-07-06 22:22:00,66.0,46.4,17.73,SW,218,3.0,6.0,49,0.00,,,0.00,meteohub,2013-07-07 05:22:00,
2013-07-06 22:42:00,66.0,45.7,17.73,South,175,4.0,6.0,48,0.00,,,0.00,meteohub,2013-07-07 05:42:00,
2013-07-06 23:02:00,66.0,45.7,17.73,WSW,246,3.0,6.0,48,0.00,,,0.00,meteohub,2013-07-07 06:02:00,
2013-07-06 23:22:00,66.0,45.7,17.73,WSW,251,0.0,0.0,48,0.00,,,0.00,meteohub,2013-07-07 06:22:00,
2013-07-06 23:42:00,66.0,45.7,17.73,West,279,0.0,0.0,48,0.00,,,0.00,meteohub,2013-07-07 06:42:00,